sensor_id;sensor_type;location;lat;lon;timestamp;pressure;altitude;pressure_sealevel;temperature;humidity
35577;BME280;21680;52.400;16.920;2023-04-30T00:01:28;100896.72;;;7.99;75.97
35577;BME280;21680;52.400;16.920;2023-04-30T00:03:54;100898.98;;;7.95;76.07
35577;BME280;21680;52.400;16.920;2023-04-30T00:06:19;100902.14;;;7.90;76.13
35577;BME280;21680;52.400;16.920;2023-04-30T00:08:44;100901.16;;;7.87;76.16
35577;BME280;21680;52.400;16.920;2023-04-30T00:11:09;100902.65;;;7.84;76.27
35577;BME280;21680;52.400;16.920;2023-04-30T00:13:34;100904.69;;;7.81;76.21
35577;BME280;21680;52.400;16.920;2023-04-30T00:16:00;100905.91;;;7.77;76.25
35577;BME280;21680;52.400;16.920;2023-04-30T00:18:25;100907.41;;;7.74;76.38
35577;BME280;21680;52.400;16.920;2023-04-30T00:20:50;100910.55;;;7.70;76.37
35577;BME280;21680;52.400;16.920;2023-04-30T00:23:17;100914.55;;;7.67;76.39
35577;BME280;21680;52.400;16.920;2023-04-30T00:25:43;100911.95;;;7.65;76.33
35577;BME280;21680;52.400;16.920;2023-04-30T00:28:08;100916.29;;;7.62;76.32
35577;BME280;21680;52.400;16.920;2023-04-30T00:30:33;100918.16;;;7.58;76.40
35577;BME280;21680;52.400;16.920;2023-04-30T00:32:58;100920.22;;;7.55;76.31
35577;BME280;21680;52.400;16.920;2023-04-30T00:35:23;100923.20;;;7.49;76.30
35577;BME280;21680;52.400;16.920;2023-04-30T00:37:49;100925.30;;;7.44;76.35
35577;BME280;21680;52.400;16.920;2023-04-30T00:40:14;100923.80;;;7.40;76.42
35577;BME280;21680;52.400;16.920;2023-04-30T00:42:39;100925.67;;;7.36;76.32
35577;BME280;21680;52.400;16.920;2023-04-30T00:45:05;100929.46;;;7.34;76.38
35577;BME280;21680;52.400;16.920;2023-04-30T00:47:31;100932.04;;;7.30;76.26
35577;BME280;21680;52.400;16.920;2023-04-30T00:49:57;100932.69;;;7.26;76.37
35577;BME280;21680;52.400;16.920;2023-04-30T00:52:22;100934.91;;;7.23;76.33
35577;BME280;21680;52.400;16.920;2023-04-30T00:54:48;100933.20;;;7.20;76.41
35577;BME280;21680;52.400;16.920;2023-04-30T00:57:14;100933.47;;;7.16;76.40
35577;BME280;21680;52.400;16.920;2023-04-30T00:59:40;100934.42;;;7.14;76.38
35577;BME280;21680;52.400;16.920;2023-04-30T01:02:06;100938.58;;;7.11;76.33
35577;BME280;21680;52.400;16.920;2023-04-30T01:04:34;100938.30;;;7.07;76.27
35577;BME280;21680;52.400;16.920;2023-04-30T01:07:00;100945.84;;;7.04;76.32
35577;BME280;21680;52.400;16.920;2023-04-30T01:09:27;100951.45;;;7.01;76.23
35577;BME280;21680;52.400;16.920;2023-04-30T01:12:12;100951.35;;;6.97;76.30
35577;BME280;21680;52.400;16.920;2023-04-30T01:14:56;100951.25;;;6.94;76.38
35577;BME280;21680;52.400;16.920;2023-04-30T01:17:33;100951.71;;;6.90;76.36
35577;BME280;21680;52.400;16.920;2023-04-30T01:20:03;100951.63;;;6.85;76.35
35577;BME280;21680;52.400;16.920;2023-04-30T01:22:45;100954.89;;;6.82;76.24
35577;BME280;21680;52.400;16.920;2023-04-30T01:25:33;100954.61;;;6.79;76.30
35577;BME280;21680;52.400;16.920;2023-04-30T01:28:08;100959.65;;;6.76;76.34
35577;BME280;21680;52.400;16.920;2023-04-30T01:30:35;100965.20;;;6.74;76.30
35577;BME280;21680;52.400;16.920;2023-04-30T01:33:02;100967.75;;;6.71;76.28
35577;BME280;21680;52.400;16.920;2023-04-30T01:40:52;100974.56;;;6.61;76.33
35577;BME280;21680;52.400;16.920;2023-04-30T01:46:27;100978.48;;;6.52;76.26
35577;BME280;21680;52.400;16.920;2023-04-30T01:49:18;100979.42;;;6.49;76.39
35577;BME280;21680;52.400;16.920;2023-04-30T01:51:53;100983.92;;;6.46;76.33
35577;BME280;21680;52.400;16.920;2023-04-30T01:54:38;100984.13;;;6.45;76.43
35577;BME280;21680;52.400;16.920;2023-04-30T01:57:18;100987.88;;;6.44;76.42
35577;BME280;21680;52.400;16.920;2023-04-30T01:59:46;100987.73;;;6.43;76.46
35577;BME280;21680;52.400;16.920;2023-04-30T02:02:11;100995.39;;;6.41;76.37
35577;BME280;21680;52.400;16.920;2023-04-30T02:04:36;100994.38;;;6.39;76.51
35577;BME280;21680;52.400;16.920;2023-04-30T02:07:02;101001.41;;;6.34;76.59
35577;BME280;21680;52.400;16.920;2023-04-30T02:09:27;101002.71;;;6.31;76.50
35577;BME280;21680;52.400;16.920;2023-04-30T02:11:52;101007.22;;;6.27;76.42
35577;BME280;21680;52.400;16.920;2023-04-30T02:14:17;101007.48;;;6.23;76.64
35577;BME280;21680;52.400;16.920;2023-04-30T02:16:43;101012.17;;;6.19;76.53
35577;BME280;21680;52.400;16.920;2023-04-30T02:19:08;101014.37;;;6.15;76.63
35577;BME280;21680;52.400;16.920;2023-04-30T02:21:33;101016.59;;;6.10;76.69
35577;BME280;21680;52.400;16.920;2023-04-30T02:23:58;101022.19;;;6.05;76.69
35577;BME280;21680;52.400;16.920;2023-04-30T02:26:24;101028.12;;;6.01;76.78
35577;BME280;21680;52.400;16.920;2023-04-30T02:28:50;101030.30;;;5.98;77.03
35577;BME280;21680;52.400;16.920;2023-04-30T02:31:16;101028.41;;;5.95;77.00
35577;BME280;21680;52.400;16.920;2023-04-30T02:33:41;101033.94;;;5.94;76.88
35577;BME280;21680;52.400;16.920;2023-04-30T02:36:07;101031.66;;;5.92;77.05
35577;BME280;21680;52.400;16.920;2023-04-30T02:38:33;101031.48;;;5.92;77.08
35577;BME280;21680;52.400;16.920;2023-04-30T02:40:58;101032.70;;;5.93;76.91
35577;BME280;21680;52.400;16.920;2023-04-30T02:43:23;101035.18;;;5.94;76.97
35577;BME280;21680;52.400;16.920;2023-04-30T02:45:48;101038.38;;;5.93;77.07
35577;BME280;21680;52.400;16.920;2023-04-30T02:48:14;101042.99;;;5.93;77.01
35577;BME280;21680;52.400;16.920;2023-04-30T02:50:39;101040.86;;;5.93;77.05
35577;BME280;21680;52.400;16.920;2023-04-30T02:53:06;101042.48;;;5.92;77.02
35577;BME280;21680;52.400;16.920;2023-04-30T02:55:31;101044.45;;;5.91;76.96
35577;BME280;21680;52.400;16.920;2023-04-30T02:57:57;101048.02;;;5.89;76.94
35577;BME280;21680;52.400;16.920;2023-04-30T03:00:22;101049.28;;;5.86;77.05
35577;BME280;21680;52.400;16.920;2023-04-30T03:02:47;101046.52;;;5.83;77.16
35577;BME280;21680;52.400;16.920;2023-04-30T03:05:13;101051.89;;;5.79;77.14
35577;BME280;21680;52.400;16.920;2023-04-30T03:07:40;101055.50;;;5.76;77.33
35577;BME280;21680;52.400;16.920;2023-04-30T03:10:05;101056.44;;;5.73;77.25
35577;BME280;21680;52.400;16.920;2023-04-30T03:12:31;101058.44;;;5.69;77.13
35577;BME280;21680;52.400;16.920;2023-04-30T03:14:57;101063.64;;;5.66;77.19
35577;BME280;21680;52.400;16.920;2023-04-30T03:17:23;101063.35;;;5.62;77.12
35577;BME280;21680;52.400;16.920;2023-04-30T03:19:49;101061.10;;;5.59;77.10
35577;BME280;21680;52.400;16.920;2023-04-30T03:22:15;101066.30;;;5.55;77.05
35577;BME280;21680;52.400;16.920;2023-04-30T03:24:40;101065.49;;;5.51;77.12
35577;BME280;21680;52.400;16.920;2023-04-30T03:27:05;101066.63;;;5.46;77.27
35577;BME280;21680;52.400;16.920;2023-04-30T03:29:31;101070.21;;;5.43;77.25
35577;BME280;21680;52.400;16.920;2023-04-30T03:31:56;101070.45;;;5.39;77.27
35577;BME280;21680;52.400;16.920;2023-04-30T03:34:21;101074.38;;;5.37;77.38
35577;BME280;21680;52.400;16.920;2023-04-30T03:36:46;101078.86;;;5.34;77.42
35577;BME280;21680;52.400;16.920;2023-04-30T03:39:13;101079.97;;;5.31;77.55
35577;BME280;21680;52.400;16.920;2023-04-30T03:41:39;101081.98;;;5.27;77.62
35577;BME280;21680;52.400;16.920;2023-04-30T03:44:04;101083.95;;;5.26;77.67
35577;BME280;21680;52.400;16.920;2023-04-30T03:46:29;101085.92;;;5.24;77.77
35577;BME280;21680;52.400;16.920;2023-04-30T03:48:55;101090.58;;;5.21;77.71
35577;BME280;21680;52.400;16.920;2023-04-30T03:51:20;101094.54;;;5.18;77.69
35577;BME280;21680;52.400;16.920;2023-04-30T03:53:46;101096.00;;;5.15;77.69
35577;BME280;21680;52.400;16.920;2023-04-30T03:56:11;101103.63;;;5.14;77.80
35577;BME280;21680;52.400;16.920;2023-04-30T03:58:37;101107.17;;;5.14;78.01
35577;BME280;21680;52.400;16.920;2023-04-30T04:01:03;101105.77;;;5.12;77.80
35577;BME280;21680;52.400;16.920;2023-04-30T04:03:28;101114.47;;;5.12;77.84
35577;BME280;21680;52.400;16.920;2023-04-30T04:05:54;101118.73;;;5.10;77.99
35577;BME280;21680;52.400;16.920;2023-04-30T04:08:19;101119.64;;;5.09;77.94
35577;BME280;21680;52.400;16.920;2023-04-30T04:10:45;101123.90;;;5.08;77.85
35577;BME280;21680;52.400;16.920;2023-04-30T04:13:10;101128.70;;;5.07;78.15
35577;BME280;21680;52.400;16.920;2023-04-30T04:15:35;101128.69;;;5.08;78.06
35577;BME280;21680;52.400;16.920;2023-04-30T04:18:01;101137.73;;;5.07;78.14
35577;BME280;21680;52.400;16.920;2023-04-30T04:20:26;101138.81;;;5.06;78.17
35577;BME280;21680;52.400;16.920;2023-04-30T04:22:54;101138.84;;;5.04;78.29
35577;BME280;21680;52.400;16.920;2023-04-30T04:25:19;101146.61;;;5.06;78.24
35577;BME280;21680;52.400;16.920;2023-04-30T04:27:44;101150.83;;;5.08;78.39
35577;BME280;21680;52.400;16.920;2023-04-30T04:30:11;101154.35;;;5.10;78.44
35577;BME280;21680;52.400;16.920;2023-04-30T04:32:37;101159.09;;;5.13;78.18
35577;BME280;21680;52.400;16.920;2023-04-30T04:35:14;101159.95;;;5.16;78.26
35577;BME280;21680;52.400;16.920;2023-04-30T04:37:39;101161.52;;;5.17;78.20
35577;BME280;21680;52.400;16.920;2023-04-30T04:40:05;101165.21;;;5.19;78.33
35577;BME280;21680;52.400;16.920;2023-04-30T04:42:31;101166.58;;;5.20;78.34
35577;BME280;21680;52.400;16.920;2023-04-30T04:44:58;101168.67;;;5.23;78.35
35577;BME280;21680;52.400;16.920;2023-04-30T04:47:23;101167.59;;;5.25;78.60
35577;BME280;21680;52.400;16.920;2023-04-30T04:49:48;101175.54;;;5.27;78.40
35577;BME280;21680;52.400;16.920;2023-04-30T04:52:13;101176.56;;;5.30;78.36
35577;BME280;21680;52.400;16.920;2023-04-30T04:54:39;101179.18;;;5.32;78.58
35577;BME280;21680;52.400;16.920;2023-04-30T04:57:05;101179.13;;;5.36;78.46
35577;BME280;21680;52.400;16.920;2023-04-30T04:59:31;101185.63;;;5.40;78.47
35577;BME280;21680;52.400;16.920;2023-04-30T05:01:56;101190.53;;;5.44;78.55
35577;BME280;21680;52.400;16.920;2023-04-30T05:04:21;101188.91;;;5.46;78.50
35577;BME280;21680;52.400;16.920;2023-04-30T05:06:47;101195.79;;;5.50;78.35
35577;BME280;21680;52.400;16.920;2023-04-30T05:09:12;101201.58;;;5.53;78.59
35577;BME280;21680;52.400;16.920;2023-04-30T05:11:38;101197.13;;;5.55;78.38
35577;BME280;21680;52.400;16.920;2023-04-30T05:14:05;101199.38;;;5.59;78.44
35577;BME280;21680;52.400;16.920;2023-04-30T05:16:31;101202.71;;;5.61;78.44
35577;BME280;21680;52.400;16.920;2023-04-30T05:18:56;101203.92;;;5.64;78.31
35577;BME280;21680;52.400;16.920;2023-04-30T05:21:21;101201.20;;;5.68;78.31
35577;BME280;21680;52.400;16.920;2023-04-30T05:23:47;101208.25;;;5.71;78.24
35577;BME280;21680;52.400;16.920;2023-04-30T05:26:12;101209.96;;;5.75;78.18
35577;BME280;21680;52.400;16.920;2023-04-30T05:28:37;101212.59;;;5.76;78.00
35577;BME280;21680;52.400;16.920;2023-04-30T05:31:03;101221.61;;;5.79;78.05
35577;BME280;21680;52.400;16.920;2023-04-30T05:33:28;101221.40;;;5.81;77.78
35577;BME280;21680;52.400;16.920;2023-04-30T05:35:53;101223.83;;;5.85;77.95
35577;BME280;21680;52.400;16.920;2023-04-30T05:38:18;101227.33;;;5.89;77.82
35577;BME280;21680;52.400;16.920;2023-04-30T05:40:43;101230.29;;;5.94;77.79
35577;BME280;21680;52.400;16.920;2023-04-30T05:43:09;101233.23;;;5.99;77.61
35577;BME280;21680;52.400;16.920;2023-04-30T05:45:34;101240.23;;;6.04;77.73
35577;BME280;21680;52.400;16.920;2023-04-30T05:47:59;101243.35;;;6.10;77.68
35577;BME280;21680;52.400;16.920;2023-04-30T05:50:26;101246.48;;;6.13;77.41
35577;BME280;21680;52.400;16.920;2023-04-30T05:52:51;101244.13;;;6.16;77.25
35577;BME280;21680;52.400;16.920;2023-04-30T05:55:16;101251.52;;;6.21;77.12
35577;BME280;21680;52.400;16.920;2023-04-30T05:57:41;101249.84;;;6.26;76.95
35577;BME280;21680;52.400;16.920;2023-04-30T06:00:07;101251.70;;;6.31;76.87
35577;BME280;21680;52.400;16.920;2023-04-30T06:02:33;101253.75;;;6.36;76.79
35577;BME280;21680;52.400;16.920;2023-04-30T06:04:58;101249.77;;;6.41;76.65
35577;BME280;21680;52.400;16.920;2023-04-30T06:07:26;101250.95;;;6.45;76.21
35577;BME280;21680;52.400;16.920;2023-04-30T06:09:51;101256.18;;;6.50;76.28
35577;BME280;21680;52.400;16.920;2023-04-30T06:12:16;101261.61;;;6.55;76.02
35577;BME280;21680;52.400;16.920;2023-04-30T06:14:42;101266.69;;;6.59;75.89
35577;BME280;21680;52.400;16.920;2023-04-30T06:17:10;101270.00;;;6.62;75.80
35577;BME280;21680;52.400;16.920;2023-04-30T06:19:35;101273.48;;;6.66;75.19
35577;BME280;21680;52.400;16.920;2023-04-30T06:22:02;101270.28;;;6.66;74.51
35577;BME280;21680;52.400;16.920;2023-04-30T06:24:28;101274.52;;;6.68;73.89
35577;BME280;21680;52.400;16.920;2023-04-30T06:26:54;101273.60;;;6.70;73.78
35577;BME280;21680;52.400;16.920;2023-04-30T06:29:19;101272.83;;;6.73;73.99
35577;BME280;21680;52.400;16.920;2023-04-30T06:31:45;101274.48;;;6.80;73.97
35577;BME280;21680;52.400;16.920;2023-04-30T06:34:10;101273.62;;;6.89;74.10
35577;BME280;21680;52.400;16.920;2023-04-30T06:36:35;101273.65;;;6.97;74.07
35577;BME280;21680;52.400;16.920;2023-04-30T06:39:01;101274.88;;;7.07;74.16
35577;BME280;21680;52.400;16.920;2023-04-30T06:41:27;101275.41;;;7.17;73.99
35577;BME280;21680;52.400;16.920;2023-04-30T06:43:54;101281.73;;;7.21;73.58
35577;BME280;21680;52.400;16.920;2023-04-30T06:46:19;101287.81;;;7.18;72.80
35577;BME280;21680;52.400;16.920;2023-04-30T06:48:44;101286.39;;;7.18;72.62
35577;BME280;21680;52.400;16.920;2023-04-30T06:51:09;101284.59;;;7.20;71.91
35577;BME280;21680;52.400;16.920;2023-04-30T06:53:35;101283.66;;;7.21;71.58
35577;BME280;21680;52.400;16.920;2023-04-30T06:56:00;101286.06;;;7.26;71.92
35577;BME280;21680;52.400;16.920;2023-04-30T06:58:25;101286.82;;;7.32;71.91
35577;BME280;21680;52.400;16.920;2023-04-30T07:00:51;101288.36;;;7.36;71.79
35577;BME280;21680;52.400;16.920;2023-04-30T07:03:16;101288.48;;;7.38;70.62
35577;BME280;21680;52.400;16.920;2023-04-30T07:05:42;101286.32;;;7.40;70.49
35577;BME280;21680;52.400;16.920;2023-04-30T07:08:07;101289.77;;;7.45;70.60
35577;BME280;21680;52.400;16.920;2023-04-30T07:10:32;101284.48;;;7.52;70.42
35577;BME280;21680;52.400;16.920;2023-04-30T07:12:58;101291.08;;;7.60;70.58
35577;BME280;21680;52.400;16.920;2023-04-30T07:15:23;101289.34;;;7.66;69.87
35577;BME280;21680;52.400;16.920;2023-04-30T07:17:49;101283.13;;;7.65;68.53
35577;BME280;21680;52.400;16.920;2023-04-30T07:20:15;101284.26;;;7.63;67.97
35577;BME280;21680;52.400;16.920;2023-04-30T07:22:44;101288.12;;;7.65;68.35
35577;BME280;21680;52.400;16.920;2023-04-30T07:25:10;101286.48;;;7.75;68.24
35577;BME280;21680;52.400;16.920;2023-04-30T07:27:36;101284.39;;;7.80;68.27
35577;BME280;21680;52.400;16.920;2023-04-30T07:30:02;101286.48;;;7.82;68.12
35577;BME280;21680;52.400;16.920;2023-04-30T07:32:28;101285.45;;;7.81;67.04
35577;BME280;21680;52.400;16.920;2023-04-30T07:34:53;101288.27;;;7.81;66.86
35577;BME280;21680;52.400;16.920;2023-04-30T07:37:18;101293.15;;;7.86;67.02
35577;BME280;21680;52.400;16.920;2023-04-30T07:39:44;101287.60;;;7.87;66.95
35577;BME280;21680;52.400;16.920;2023-04-30T07:42:09;101290.34;;;7.92;66.02
35577;BME280;21680;52.400;16.920;2023-04-30T07:44:36;101298.48;;;7.94;65.23
35577;BME280;21680;52.400;16.920;2023-04-30T07:47:01;101301.67;;;7.94;65.48
35577;BME280;21680;52.400;16.920;2023-04-30T07:49:27;101298.85;;;8.02;65.69
35577;BME280;21680;52.400;16.920;2023-04-30T07:51:52;101301.13;;;8.10;65.35
35577;BME280;21680;52.400;16.920;2023-04-30T07:54:18;101300.77;;;8.19;65.14
35577;BME280;21680;52.400;16.920;2023-04-30T07:56:43;101300.77;;;8.26;65.06
35577;BME280;21680;52.400;16.920;2023-04-30T07:59:09;101302.61;;;8.32;64.80
35577;BME280;21680;52.400;16.920;2023-04-30T08:01:34;101302.85;;;8.37;64.83
35577;BME280;21680;52.400;16.920;2023-04-30T08:03:59;101304.19;;;8.41;64.63
35577;BME280;21680;52.400;16.920;2023-04-30T08:06:25;101307.67;;;8.44;63.93
35577;BME280;21680;52.400;16.920;2023-04-30T08:08:51;101306.78;;;8.44;63.78
35577;BME280;21680;52.400;16.920;2023-04-30T08:11:17;101305.00;;;8.45;64.02
35577;BME280;21680;52.400;16.920;2023-04-30T08:13:44;101305.71;;;8.52;64.08
35577;BME280;21680;52.400;16.920;2023-04-30T08:16:10;101308.44;;;8.64;64.06
35577;BME280;21680;52.400;16.920;2023-04-30T08:18:36;101312.42;;;8.75;63.76
35577;BME280;21680;52.400;16.920;2023-04-30T08:21:03;101309.21;;;8.76;61.78
35577;BME280;21680;52.400;16.920;2023-04-30T08:23:29;101307.61;;;8.75;61.99
35577;BME280;21680;52.400;16.920;2023-04-30T08:25:55;101311.21;;;8.81;62.55
35577;BME280;21680;52.400;16.920;2023-04-30T08:28:20;101316.31;;;8.84;61.78
35577;BME280;21680;52.400;16.920;2023-04-30T08:30:45;101312.19;;;8.78;61.83
35577;BME280;21680;52.400;16.920;2023-04-30T08:33:10;101318.55;;;8.80;61.91
35577;BME280;21680;52.400;16.920;2023-04-30T08:35:36;101315.17;;;8.87;62.09
35577;BME280;21680;52.400;16.920;2023-04-30T08:38:01;101326.36;;;8.95;61.88
35577;BME280;21680;52.400;16.920;2023-04-30T08:40:27;101322.75;;;8.97;61.52
35577;BME280;21680;52.400;16.920;2023-04-30T08:43:01;101324.85;;;8.99;61.06
35577;BME280;21680;52.400;16.920;2023-04-30T08:45:30;101322.08;;;9.02;60.48
35577;BME280;21680;52.400;16.920;2023-04-30T08:47:57;101324.88;;;9.04;60.05
35577;BME280;21680;52.400;16.920;2023-04-30T08:50:24;101323.45;;;9.04;60.20
35577;BME280;21680;52.400;16.920;2023-04-30T08:52:49;101325.58;;;9.04;59.63
35577;BME280;21680;52.400;16.920;2023-04-30T08:55:14;101329.30;;;9.13;59.32
35577;BME280;21680;52.400;16.920;2023-04-30T08:57:39;101333.98;;;9.11;58.89
35577;BME280;21680;52.400;16.920;2023-04-30T09:00:05;101327.76;;;9.17;58.77
35577;BME280;21680;52.400;16.920;2023-04-30T09:02:32;101329.48;;;9.25;58.39
35577;BME280;21680;52.400;16.920;2023-04-30T09:04:57;101333.40;;;9.32;58.02
35577;BME280;21680;52.400;16.920;2023-04-30T09:07:23;101330.84;;;9.34;58.03
35577;BME280;21680;52.400;16.920;2023-04-30T09:09:52;101335.80;;;9.35;57.82
35577;BME280;21680;52.400;16.920;2023-04-30T09:12:18;101337.11;;;9.40;57.06
35577;BME280;21680;52.400;16.920;2023-04-30T09:15:02;101336.89;;;9.41;55.78
35577;BME280;21680;52.400;16.920;2023-04-30T09:17:28;101337.61;;;9.41;54.62
35577;BME280;21680;52.400;16.920;2023-04-30T09:20:05;101337.39;;;9.43;54.04
35577;BME280;21680;52.400;16.920;2023-04-30T09:22:31;101339.87;;;9.43;54.01
35577;BME280;21680;52.400;16.920;2023-04-30T09:24:56;101338.11;;;9.42;54.03
35577;BME280;21680;52.400;16.920;2023-04-30T09:27:21;101340.67;;;9.47;54.02
35577;BME280;21680;52.400;16.920;2023-04-30T09:29:47;101338.80;;;9.56;54.06
35577;BME280;21680;52.400;16.920;2023-04-30T09:32:12;101345.46;;;9.60;53.71
35577;BME280;21680;52.400;16.920;2023-04-30T09:34:39;101335.01;;;9.58;53.74
35577;BME280;21680;52.400;16.920;2023-04-30T09:37:04;101334.60;;;9.60;53.64
35577;BME280;21680;52.400;16.920;2023-04-30T09:39:31;101342.09;;;9.72;52.83
35577;BME280;21680;52.400;16.920;2023-04-30T09:42:09;101340.66;;;9.79;53.22
35577;BME280;21680;52.400;16.920;2023-04-30T09:44:38;101332.29;;;9.84;53.51
35577;BME280;21680;52.400;16.920;2023-04-30T09:47:10;101339.05;;;9.91;53.48
35577;BME280;21680;52.400;16.920;2023-04-30T09:49:36;101333.53;;;9.96;53.09
35577;BME280;21680;52.400;16.920;2023-04-30T09:52:07;101335.86;;;9.96;52.68
35577;BME280;21680;52.400;16.920;2023-04-30T09:54:33;101339.36;;;10.04;52.25
35577;BME280;21680;52.400;16.920;2023-04-30T09:57:00;101335.60;;;10.11;52.14
35577;BME280;21680;52.400;16.920;2023-04-30T09:59:34;101336.10;;;10.12;51.53
35577;BME280;21680;52.400;16.920;2023-04-30T10:02:04;101328.02;;;10.20;51.53
35577;BME280;21680;52.400;16.920;2023-04-30T10:04:36;101324.27;;;10.31;51.69
35577;BME280;21680;52.400;16.920;2023-04-30T10:07:05;101328.63;;;10.40;50.84
35577;BME280;21680;52.400;16.920;2023-04-30T10:12:26;101316.50;;;10.40;51.10
35577;BME280;21680;52.400;16.920;2023-04-30T10:15:05;101317.05;;;10.44;51.33
35577;BME280;21680;52.400;16.920;2023-04-30T10:17:35;101315.33;;;10.47;50.82
35577;BME280;21680;52.400;16.920;2023-04-30T10:20:06;101306.50;;;10.50;50.92
35577;BME280;21680;52.400;16.920;2023-04-30T10:22:33;101317.04;;;10.56;50.21
35577;BME280;21680;52.400;16.920;2023-04-30T10:25:00;101307.23;;;10.55;50.17
35577;BME280;21680;52.400;16.920;2023-04-30T10:27:28;101300.55;;;10.62;50.37
35577;BME280;21680;52.400;16.920;2023-04-30T10:29:53;101311.40;;;10.69;50.19
35577;BME280;21680;52.400;16.920;2023-04-30T10:32:20;101309.67;;;10.83;49.97
35577;BME280;21680;52.400;16.920;2023-04-30T10:35:08;101302.70;;;10.89;49.96
35577;BME280;21680;52.400;16.920;2023-04-30T10:37:48;101303.98;;;10.93;49.15
35577;BME280;21680;52.400;16.920;2023-04-30T10:40:15;101297.38;;;10.92;49.46
35577;BME280;21680;52.400;16.920;2023-04-30T10:42:52;101299.50;;;11.03;49.48
35577;BME280;21680;52.400;16.920;2023-04-30T10:45:33;101296.95;;;11.20;48.75
35577;BME280;21680;52.400;16.920;2023-04-30T10:48:01;101291.38;;;11.21;49.08
35577;BME280;21680;52.400;16.920;2023-04-30T10:50:28;101290.23;;;11.23;48.41
35577;BME280;21680;52.400;16.920;2023-04-30T10:53:04;101283.41;;;11.28;48.26
35577;BME280;21680;52.400;16.920;2023-04-30T10:55:31;101290.40;;;11.38;48.22
35577;BME280;21680;52.400;16.920;2023-04-30T10:57:57;101290.11;;;11.51;48.07
35577;BME280;21680;52.400;16.920;2023-04-30T11:00:29;101294.58;;;11.60;48.04
35577;BME280;21680;52.400;16.920;2023-04-30T11:02:56;101296.84;;;11.57;46.81
35577;BME280;21680;52.400;16.920;2023-04-30T11:05:34;101295.69;;;11.50;47.11
35577;BME280;21680;52.400;16.920;2023-04-30T11:07:59;101298.60;;;11.58;46.65
35577;BME280;21680;52.400;16.920;2023-04-30T11:10:27;101291.83;;;11.62;46.22
35577;BME280;21680;52.400;16.920;2023-04-30T11:12:53;101283.29;;;11.70;46.64
35577;BME280;21680;52.400;16.920;2023-04-30T11:15:21;101287.55;;;11.81;47.16
35577;BME280;21680;52.400;16.920;2023-04-30T11:17:49;101278.45;;;11.94;47.13
35577;BME280;21680;52.400;16.920;2023-04-30T11:20:23;101288.29;;;12.08;46.37
35577;BME280;21680;52.400;16.920;2023-04-30T11:23:15;101279.05;;;12.11;46.37
35577;BME280;21680;52.400;16.920;2023-04-30T11:25:45;101283.80;;;12.22;46.37
35577;BME280;21680;52.400;16.920;2023-04-30T11:28:15;101276.95;;;12.19;46.37
35577;BME280;21680;52.400;16.920;2023-04-30T11:31:02;101280.87;;;12.24;46.87
35577;BME280;21680;52.400;16.920;2023-04-30T11:33:32;101289.41;;;12.30;46.14
35577;BME280;21680;52.400;16.920;2023-04-30T11:35:59;101281.14;;;12.30;46.56
35577;BME280;21680;52.400;16.920;2023-04-30T11:38:27;101292.91;;;12.40;46.52
35577;BME280;21680;52.400;16.920;2023-04-30T11:40:52;101283.45;;;12.48;46.45
35577;BME280;21680;52.400;16.920;2023-04-30T11:43:32;101292.04;;;12.53;46.12
35577;BME280;21680;52.400;16.920;2023-04-30T11:46:12;101282.63;;;12.59;46.36
35577;BME280;21680;52.400;16.920;2023-04-30T11:48:40;101281.03;;;12.68;46.09
35577;BME280;21680;52.400;16.920;2023-04-30T11:51:22;101284.86;;;12.79;44.21
35577;BME280;21680;52.400;16.920;2023-04-30T11:53:51;101280.50;;;12.76;43.52
35577;BME280;21680;52.400;16.920;2023-04-30T11:56:18;101276.94;;;12.84;43.41
35577;BME280;21680;52.400;16.920;2023-04-30T11:58:47;101277.59;;;12.97;43.78
35577;BME280;21680;52.400;16.920;2023-04-30T12:01:13;101278.73;;;13.12;43.91
35577;BME280;21680;52.400;16.920;2023-04-30T12:03:47;101284.41;;;13.18;42.42
35577;BME280;21680;52.400;16.920;2023-04-30T12:06:23;101286.95;;;13.12;41.17
35577;BME280;21680;52.400;16.920;2023-04-30T12:08:55;101284.02;;;13.14;41.73
35577;BME280;21680;52.400;16.920;2023-04-30T12:11:22;101282.48;;;13.17;42.05
35577;BME280;21680;52.400;16.920;2023-04-30T12:13:53;101279.81;;;13.24;41.65
35577;BME280;21680;52.400;16.920;2023-04-30T12:16:19;101283.63;;;13.40;41.76
35577;BME280;21680;52.400;16.920;2023-04-30T12:18:45;101279.89;;;13.43;41.45
35577;BME280;21680;52.400;16.920;2023-04-30T12:21:11;101277.30;;;13.45;41.47
35577;BME280;21680;52.400;16.920;2023-04-30T12:23:38;101274.28;;;13.48;40.68
35577;BME280;21680;52.400;16.920;2023-04-30T12:26:03;101279.54;;;13.55;40.18
35577;BME280;21680;52.400;16.920;2023-04-30T12:28:29;101284.00;;;13.71;40.63
35577;BME280;21680;52.400;16.920;2023-04-30T12:30:54;101280.14;;;13.80;39.94
35577;BME280;21680;52.400;16.920;2023-04-30T12:33:20;101283.27;;;13.83;39.66
35577;BME280;21680;52.400;16.920;2023-04-30T12:35:45;101271.88;;;13.92;39.12
35577;BME280;21680;52.400;16.920;2023-04-30T12:38:15;101277.78;;;14.04;38.87
35577;BME280;21680;52.400;16.920;2023-04-30T12:40:46;101273.47;;;14.00;38.40
35577;BME280;21680;52.400;16.920;2023-04-30T12:43:13;101266.98;;;13.96;37.64
35577;BME280;21680;52.400;16.920;2023-04-30T12:48:07;101266.86;;;13.77;36.78
35577;BME280;21680;52.400;16.920;2023-04-30T12:50:33;101268.87;;;13.79;36.93
35577;BME280;21680;52.400;16.920;2023-04-30T12:53:01;101260.39;;;13.99;37.14
35577;BME280;21680;52.400;16.920;2023-04-30T12:55:26;101258.07;;;14.07;36.10
35577;BME280;21680;52.400;16.920;2023-04-30T12:58:07;101256.71;;;13.97;36.25
35577;BME280;21680;52.400;16.920;2023-04-30T13:00:48;101259.48;;;14.10;36.42
35577;BME280;21680;52.400;16.920;2023-04-30T13:03:16;101259.84;;;14.14;36.14